sensor_id;sensor_type;location;lat;lon;timestamp;P1;durP1;ratioP1;P2;durP2;ratioP2
21886;SDS011;11108;49.988;8.182;2024-03-23T00:54:53;1.63;;;1.40;;
21886;SDS011;11108;49.988;8.182;2024-03-23T00:57:18;1.83;;;1.73;;
21886;SDS011;11108;49.988;8.182;2024-03-23T00:59:44;1.70;;;1.60;;
21886;SDS011;11108;49.988;8.182;2024-03-23T01:02:09;1.70;;;1.60;;
21886;SDS011;11108;49.988;8.182;2024-03-23T01:04:34;2.00;;;1.90;;
21886;SDS011;11108;49.988;8.182;2024-03-23T01:06:59;1.80;;;1.70;;
21886;SDS011;11108;49.988;8.182;2024-03-23T01:09:24;2.97;;;1.93;;
21886;SDS011;11108;49.988;8.182;2024-03-23T01:11:50;1.30;;;1.23;;
21886;SDS011;11108;49.988;8.182;2024-03-23T01:14:15;2.03;;;1.93;;
21886;SDS011;11108;49.988;8.182;2024-03-23T01:16:40;1.90;;;1.80;;
21886;SDS011;11108;49.988;8.182;2024-03-23T01:19:05;1.47;;;1.40;;
21886;SDS011;11108;49.988;8.182;2024-03-23T01:21:31;1.70;;;1.60;;
21886;SDS011;11108;49.988;8.182;2024-03-23T01:23:56;1.60;;;1.50;;
21886;SDS011;11108;49.988;8.182;2024-03-23T01:26:21;1.90;;;1.80;;
21886;SDS011;11108;49.988;8.182;2024-03-23T01:28:47;1.80;;;1.77;;
21886;SDS011;11108;49.988;8.182;2024-03-23T01:31:12;1.67;;;1.57;;
21886;SDS011;11108;49.988;8.182;2024-03-23T01:33:37;1.37;;;1.37;;
21886;SDS011;11108;49.988;8.182;2024-03-23T01:36:03;2.13;;;1.90;;
21886;SDS011;11108;49.988;8.182;2024-03-23T01:38:28;1.70;;;1.60;;
21886;SDS011;11108;49.988;8.182;2024-03-23T01:40:57;1.70;;;1.60;;
21886;SDS011;11108;49.988;8.182;2024-03-23T01:43:22;1.77;;;1.67;;
21886;SDS011;11108;49.988;8.182;2024-03-23T01:45:47;1.40;;;1.40;;
21886;SDS011;11108;49.988;8.182;2024-03-23T01:48:13;2.07;;;1.97;;
21886;SDS011;11108;49.988;8.182;2024-03-23T01:50:38;2.13;;;2.00;;
21886;SDS011;11108;49.988;8.182;2024-03-23T01:53:04;1.40;;;1.40;;
21886;SDS011;11108;49.988;8.182;2024-03-23T01:55:31;1.90;;;1.80;;
21886;SDS011;11108;49.988;8.182;2024-03-23T01:57:57;1.80;;;1.70;;
21886;SDS011;11108;49.988;8.182;2024-03-23T02:00:22;3.00;;;2.10;;
21886;SDS011;11108;49.988;8.182;2024-03-23T02:02:48;2.10;;;2.00;;
21886;SDS011;11108;49.988;8.182;2024-03-23T02:05:13;1.77;;;1.67;;
21886;SDS011;11108;49.988;8.182;2024-03-23T02:07:39;2.00;;;1.80;;
21886;SDS011;11108;49.988;8.182;2024-03-23T02:10:08;1.83;;;1.77;;
21886;SDS011;11108;49.988;8.182;2024-03-23T02:12:34;1.73;;;1.63;;
21886;SDS011;11108;49.988;8.182;2024-03-23T02:15:00;1.83;;;1.73;;
21886;SDS011;11108;49.988;8.182;2024-03-23T02:17:25;2.00;;;1.63;;
21886;SDS011;11108;49.988;8.182;2024-03-23T02:19:50;1.73;;;1.63;;
21886;SDS011;11108;49.988;8.182;2024-03-23T02:22:16;1.70;;;1.60;;
21886;SDS011;11108;49.988;8.182;2024-03-23T02:24:41;2.20;;;2.10;;
21886;SDS011;11108;49.988;8.182;2024-03-23T02:27:07;1.90;;;1.80;;
21886;SDS011;11108;49.988;8.182;2024-03-23T02:29:32;2.10;;;2.00;;
21886;SDS011;11108;49.988;8.182;2024-03-23T02:31:57;1.80;;;1.70;;
21886;SDS011;11108;49.988;8.182;2024-03-23T02:34:23;2.03;;;1.93;;
21886;SDS011;11108;49.988;8.182;2024-03-23T02:36:49;2.00;;;1.90;;
21886;SDS011;11108;49.988;8.182;2024-03-23T02:39:14;1.90;;;1.80;;
21886;SDS011;11108;49.988;8.182;2024-03-23T02:41:40;1.77;;;1.70;;
21886;SDS011;11108;49.988;8.182;2024-03-23T02:44:05;1.90;;;1.80;;
21886;SDS011;11108;49.988;8.182;2024-03-23T02:46:30;1.80;;;1.70;;
21886;SDS011;11108;49.988;8.182;2024-03-23T02:48:55;2.50;;;1.90;;
21886;SDS011;11108;49.988;8.182;2024-03-23T02:51:21;1.50;;;1.50;;
21886;SDS011;11108;49.988;8.182;2024-03-23T02:53:46;3.10;;;1.93;;
21886;SDS011;11108;49.988;8.182;2024-03-23T02:56:12;1.97;;;1.87;;
21886;SDS011;11108;49.988;8.182;2024-03-23T02:58:40;2.60;;;2.43;;
21886;SDS011;11108;49.988;8.182;2024-03-23T03:01:06;1.90;;;1.80;;
21886;SDS011;11108;49.988;8.182;2024-03-23T03:03:31;2.30;;;2.07;;
21886;SDS011;11108;49.988;8.182;2024-03-23T03:05:56;2.80;;;2.00;;
21886;SDS011;11108;49.988;8.182;2024-03-23T03:08:21;2.40;;;2.20;;
21886;SDS011;11108;49.988;8.182;2024-03-23T03:10:46;2.40;;;2.20;;
21886;SDS011;11108;49.988;8.182;2024-03-23T03:13:12;1.87;;;1.77;;
21886;SDS011;11108;49.988;8.182;2024-03-23T03:15:37;1.93;;;1.83;;
21886;SDS011;11108;49.988;8.182;2024-03-23T03:18:02;1.83;;;1.73;;
21886;SDS011;11108;49.988;8.182;2024-03-23T03:20:27;2.30;;;2.20;;
21886;SDS011;11108;49.988;8.182;2024-03-23T03:22:52;2.03;;;1.93;;
21886;SDS011;11108;49.988;8.182;2024-03-23T03:25:18;2.27;;;2.10;;
21886;SDS011;11108;49.988;8.182;2024-03-23T03:27:43;2.27;;;2.17;;
21886;SDS011;11108;49.988;8.182;2024-03-23T03:30:09;2.43;;;2.30;;
21886;SDS011;11108;49.988;8.182;2024-03-23T03:32:34;2.20;;;2.10;;
21886;SDS011;11108;49.988;8.182;2024-03-23T03:34:59;2.20;;;2.10;;
21886;SDS011;11108;49.988;8.182;2024-03-23T03:37:25;2.53;;;2.40;;
21886;SDS011;11108;49.988;8.182;2024-03-23T03:39:50;2.03;;;1.93;;
21886;SDS011;11108;49.988;8.182;2024-03-23T03:42:15;2.00;;;1.90;;
21886;SDS011;11108;49.988;8.182;2024-03-23T03:44:40;2.57;;;2.27;;
21886;SDS011;11108;49.988;8.182;2024-03-23T03:47:06;3.07;;;2.17;;
21886;SDS011;11108;49.988;8.182;2024-03-23T03:49:32;2.77;;;2.57;;
21886;SDS011;11108;49.988;8.182;2024-03-23T03:51:58;1.97;;;1.97;;
21886;SDS011;11108;49.988;8.182;2024-03-23T03:54:23;2.37;;;2.20;;
21886;SDS011;11108;49.988;8.182;2024-03-23T03:56:48;2.50;;;2.40;;
21886;SDS011;11108;49.988;8.182;2024-03-23T03:59:15;3.10;;;2.20;;
21886;SDS011;11108;49.988;8.182;2024-03-23T04:01:40;2.20;;;2.10;;
21886;SDS011;11108;49.988;8.182;2024-03-23T04:04:05;2.63;;;2.43;;
21886;SDS011;11108;49.988;8.182;2024-03-23T04:06:31;2.20;;;2.10;;
21886;SDS011;11108;49.988;8.182;2024-03-23T04:08:58;2.27;;;2.17;;
21886;SDS011;11108;49.988;8.182;2024-03-23T04:11:23;2.27;;;2.00;;
21886;SDS011;11108;49.988;8.182;2024-03-23T04:13:48;2.60;;;2.17;;
21886;SDS011;11108;49.988;8.182;2024-03-23T04:16:24;2.43;;;2.20;;
21886;SDS011;11108;49.988;8.182;2024-03-23T04:18:49;1.83;;;1.73;;
21886;SDS011;11108;49.988;8.182;2024-03-23T04:21:14;2.00;;;1.90;;
21886;SDS011;11108;49.988;8.182;2024-03-23T04:23:39;1.87;;;1.77;;
21886;SDS011;11108;49.988;8.182;2024-03-23T04:26:05;1.83;;;1.73;;
21886;SDS011;11108;49.988;8.182;2024-03-23T04:28:30;1.70;;;1.70;;
21886;SDS011;11108;49.988;8.182;2024-03-23T04:30:56;1.70;;;1.70;;
21886;SDS011;11108;49.988;8.182;2024-03-23T04:33:21;1.90;;;1.80;;
21886;SDS011;11108;49.988;8.182;2024-03-23T04:35:48;1.47;;;1.47;;
21886;SDS011;11108;49.988;8.182;2024-03-23T04:38:13;1.27;;;1.27;;
21886;SDS011;11108;49.988;8.182;2024-03-23T04:40:38;1.77;;;1.67;;
21886;SDS011;11108;49.988;8.182;2024-03-23T04:43:04;1.37;;;1.37;;
21886;SDS011;11108;49.988;8.182;2024-03-23T04:45:30;1.30;;;1.30;;
21886;SDS011;11108;49.988;8.182;2024-03-23T04:47:55;1.33;;;1.33;;
21886;SDS011;11108;49.988;8.182;2024-03-23T04:50:20;1.40;;;1.40;;
21886;SDS011;11108;49.988;8.182;2024-03-23T04:52:45;1.87;;;1.77;;
21886;SDS011;11108;49.988;8.182;2024-03-23T04:55:11;1.57;;;1.57;;
21886;SDS011;11108;49.988;8.182;2024-03-23T04:57:37;1.60;;;1.50;;
21886;SDS011;11108;49.988;8.182;2024-03-23T05:00:02;1.33;;;1.33;;
21886;SDS011;11108;49.988;8.182;2024-03-23T05:02:29;1.20;;;1.20;;
21886;SDS011;11108;49.988;8.182;2024-03-23T05:04:54;1.40;;;1.40;;
21886;SDS011;11108;49.988;8.182;2024-03-23T05:07:19;1.37;;;1.37;;
21886;SDS011;11108;49.988;8.182;2024-03-23T05:09:45;1.20;;;1.20;;
21886;SDS011;11108;49.988;8.182;2024-03-23T05:12:12;1.50;;;1.40;;
21886;SDS011;11108;49.988;8.182;2024-03-23T05:14:37;1.60;;;1.50;;
21886;SDS011;11108;49.988;8.182;2024-03-23T05:17:02;1.67;;;1.57;;
21886;SDS011;11108;49.988;8.182;2024-03-23T05:19:28;1.50;;;1.50;;
21886;SDS011;11108;49.988;8.182;2024-03-23T05:21:53;1.37;;;1.37;;
21886;SDS011;11108;49.988;8.182;2024-03-23T05:24:18;1.30;;;1.20;;
21886;SDS011;11108;49.988;8.182;2024-03-23T05:26:43;1.40;;;1.40;;
21886;SDS011;11108;49.988;8.182;2024-03-23T05:29:08;1.47;;;1.47;;
21886;SDS011;11108;49.988;8.182;2024-03-23T05:31:38;1.17;;;1.17;;
21886;SDS011;11108;49.988;8.182;2024-03-23T05:34:03;1.20;;;1.20;;
21886;SDS011;11108;49.988;8.182;2024-03-23T05:36:28;1.13;;;1.13;;
21886;SDS011;11108;49.988;8.182;2024-03-23T05:38:54;1.30;;;1.20;;
21886;SDS011;11108;49.988;8.182;2024-03-23T05:41:19;1.50;;;1.30;;
21886;SDS011;11108;49.988;8.182;2024-03-23T05:43:45;1.50;;;1.40;;
21886;SDS011;11108;49.988;8.182;2024-03-23T05:46:10;1.17;;;1.17;;
21886;SDS011;11108;49.988;8.182;2024-03-23T05:48:36;1.33;;;1.33;;
21886;SDS011;11108;49.988;8.182;2024-03-23T05:51:01;1.03;;;1.00;;
21886;SDS011;11108;49.988;8.182;2024-03-23T05:53:26;1.23;;;1.23;;
21886;SDS011;11108;49.988;8.182;2024-03-23T05:56:00;1.10;;;1.10;;
21886;SDS011;11108;49.988;8.182;2024-03-23T05:58:25;1.00;;;1.00;;
21886;SDS011;11108;49.988;8.182;2024-03-23T06:00:56;1.00;;;1.00;;
21886;SDS011;11108;49.988;8.182;2024-03-23T06:03:21;1.03;;;1.03;;
21886;SDS011;11108;49.988;8.182;2024-03-23T06:05:47;1.10;;;1.10;;
21886;SDS011;11108;49.988;8.182;2024-03-23T06:08:12;1.00;;;1.00;;
21886;SDS011;11108;49.988;8.182;2024-03-23T06:10:39;1.00;;;1.00;;
21886;SDS011;11108;49.988;8.182;2024-03-23T06:13:04;1.07;;;1.07;;
21886;SDS011;11108;49.988;8.182;2024-03-23T06:15:30;1.47;;;1.00;;
21886;SDS011;11108;49.988;8.182;2024-03-23T06:17:56;1.00;;;1.00;;
21886;SDS011;11108;49.988;8.182;2024-03-23T06:20:21;1.20;;;1.10;;
21886;SDS011;11108;49.988;8.182;2024-03-23T06:22:46;1.00;;;1.00;;
21886;SDS011;11108;49.988;8.182;2024-03-23T06:25:12;1.00;;;1.00;;
21886;SDS011;11108;49.988;8.182;2024-03-23T06:27:37;1.33;;;1.23;;
21886;SDS011;11108;49.988;8.182;2024-03-23T06:30:03;0.87;;;0.87;;
21886;SDS011;11108;49.988;8.182;2024-03-23T06:32:28;1.10;;;1.10;;
21886;SDS011;11108;49.988;8.182;2024-03-23T06:34:56;0.90;;;0.90;;
21886;SDS011;11108;49.988;8.182;2024-03-23T06:37:21;1.17;;;1.00;;
21886;SDS011;11108;49.988;8.182;2024-03-23T06:39:46;0.93;;;0.93;;
21886;SDS011;11108;49.988;8.182;2024-03-23T06:42:12;1.00;;;1.00;;
21886;SDS011;11108;49.988;8.182;2024-03-23T06:44:37;0.77;;;0.77;;
21886;SDS011;11108;49.988;8.182;2024-03-23T06:47:02;1.03;;;1.03;;
21886;SDS011;11108;49.988;8.182;2024-03-23T06:49:27;0.80;;;0.80;;
21886;SDS011;11108;49.988;8.182;2024-03-23T06:51:53;1.03;;;1.03;;
21886;SDS011;11108;49.988;8.182;2024-03-23T06:54:18;0.77;;;0.77;;
21886;SDS011;11108;49.988;8.182;2024-03-23T06:56:44;0.97;;;0.97;;
21886;SDS011;11108;49.988;8.182;2024-03-23T06:59:09;0.90;;;0.90;;
21886;SDS011;11108;49.988;8.182;2024-03-23T07:01:34;0.97;;;0.97;;
21886;SDS011;11108;49.988;8.182;2024-03-23T07:04:00;1.13;;;1.03;;
21886;SDS011;11108;49.988;8.182;2024-03-23T07:06:25;1.00;;;1.00;;
21886;SDS011;11108;49.988;8.182;2024-03-23T07:08:51;1.43;;;0.70;;
21886;SDS011;11108;49.988;8.182;2024-03-23T07:11:20;0.90;;;0.90;;
21886;SDS011;11108;49.988;8.182;2024-03-23T07:13:46;0.60;;;0.60;;
21886;SDS011;11108;49.988;8.182;2024-03-23T07:16:11;1.10;;;0.97;;
21886;SDS011;11108;49.988;8.182;2024-03-23T07:18:36;1.70;;;0.90;;
21886;SDS011;11108;49.988;8.182;2024-03-23T07:21:02;0.80;;;0.80;;
21886;SDS011;11108;49.988;8.182;2024-03-23T07:23:27;0.67;;;0.67;;
21886;SDS011;11108;49.988;8.182;2024-03-23T07:25:59;0.83;;;0.83;;
21886;SDS011;11108;49.988;8.182;2024-03-23T07:28:24;0.80;;;0.80;;
21886;SDS011;11108;49.988;8.182;2024-03-23T07:31:02;1.00;;;0.80;;
21886;SDS011;11108;49.988;8.182;2024-03-23T07:33:28;0.80;;;0.80;;
21886;SDS011;11108;49.988;8.182;2024-03-23T07:35:53;0.80;;;0.80;;
21886;SDS011;11108;49.988;8.182;2024-03-23T07:38:18;1.97;;;0.77;;
21886;SDS011;11108;49.988;8.182;2024-03-23T07:40:44;1.20;;;1.10;;
21886;SDS011;11108;49.988;8.182;2024-03-23T07:43:09;0.70;;;0.70;;
21886;SDS011;11108;49.988;8.182;2024-03-23T07:45:34;1.03;;;0.90;;
21886;SDS011;11108;49.988;8.182;2024-03-23T07:47:59;0.80;;;0.80;;
21886;SDS011;11108;49.988;8.182;2024-03-23T07:50:24;1.30;;;1.00;;
21886;SDS011;11108;49.988;8.182;2024-03-23T07:52:49;0.90;;;0.90;;
21886;SDS011;11108;49.988;8.182;2024-03-23T07:55:15;0.93;;;0.93;;
21886;SDS011;11108;49.988;8.182;2024-03-23T07:57:40;1.40;;;0.77;;
21886;SDS011;11108;49.988;8.182;2024-03-23T08:00:05;0.90;;;0.90;;
21886;SDS011;11108;49.988;8.182;2024-03-23T08:02:31;1.30;;;1.10;;
21886;SDS011;11108;49.988;8.182;2024-03-23T08:04:56;2.27;;;0.90;;
21886;SDS011;11108;49.988;8.182;2024-03-23T08:07:21;1.73;;;1.10;;
21886;SDS011;11108;49.988;8.182;2024-03-23T08:09:47;1.17;;;1.17;;
21886;SDS011;11108;49.988;8.182;2024-03-23T08:12:12;1.77;;;1.23;;
21886;SDS011;11108;49.988;8.182;2024-03-23T08:14:37;0.83;;;0.83;;
21886;SDS011;11108;49.988;8.182;2024-03-23T08:17:02;2.83;;;0.90;;
21886;SDS011;11108;49.988;8.182;2024-03-23T08:19:27;1.03;;;0.93;;
21886;SDS011;11108;49.988;8.182;2024-03-23T08:21:53;1.43;;;0.97;;
21886;SDS011;11108;49.988;8.182;2024-03-23T08:24:19;1.70;;;1.20;;
21886;SDS011;11108;49.988;8.182;2024-03-23T08:26:44;0.73;;;0.73;;
21886;SDS011;11108;49.988;8.182;2024-03-23T08:29:10;1.10;;;1.03;;
21886;SDS011;11108;49.988;8.182;2024-03-23T08:31:35;0.93;;;0.93;;
21886;SDS011;11108;49.988;8.182;2024-03-23T08:34:00;0.80;;;0.80;;
21886;SDS011;11108;49.988;8.182;2024-03-23T08:36:25;1.00;;;0.90;;
21886;SDS011;11108;49.988;8.182;2024-03-23T08:38:50;1.70;;;1.00;;
21886;SDS011;11108;49.988;8.182;2024-03-23T08:41:18;0.87;;;0.70;;
21886;SDS011;11108;49.988;8.182;2024-03-23T08:43:43;0.90;;;0.90;;
21886;SDS011;11108;49.988;8.182;2024-03-23T08:46:12;1.03;;;0.90;;
21886;SDS011;11108;49.988;8.182;2024-03-23T08:48:39;1.10;;;1.00;;
21886;SDS011;11108;49.988;8.182;2024-03-23T08:51:05;0.90;;;0.90;;
21886;SDS011;11108;49.988;8.182;2024-03-23T08:53:31;1.00;;;0.90;;
21886;SDS011;11108;49.988;8.182;2024-03-23T08:55:56;0.80;;;0.77;;
21886;SDS011;11108;49.988;8.182;2024-03-23T08:58:22;1.60;;;1.00;;
21886;SDS011;11108;49.988;8.182;2024-03-23T09:00:49;0.93;;;0.90;;
21886;SDS011;11108;49.988;8.182;2024-03-23T09:03:14;1.10;;;1.00;;
21886;SDS011;11108;49.988;8.182;2024-03-23T09:05:39;1.33;;;1.23;;
21886;SDS011;11108;49.988;8.182;2024-03-23T09:08:05;1.50;;;1.07;;
21886;SDS011;11108;49.988;8.182;2024-03-23T09:10:30;2.10;;;1.00;;
21886;SDS011;11108;49.988;8.182;2024-03-23T09:12:55;0.95;;;0.95;;
21886;SDS011;11108;49.988;8.182;2024-03-23T09:15:21;1.17;;;0.90;;
21886;SDS011;11108;49.988;8.182;2024-03-23T09:17:46;3.13;;;0.93;;
21886;SDS011;11108;49.988;8.182;2024-03-23T09:20:11;2.87;;;1.10;;
21886;SDS011;11108;49.988;8.182;2024-03-23T09:22:36;1.43;;;0.80;;
21886;SDS011;11108;49.988;8.182;2024-03-23T09:25:01;2.57;;;1.03;;
21886;SDS011;11108;49.988;8.182;2024-03-23T09:27:27;1.00;;;0.87;;
21886;SDS011;11108;49.988;8.182;2024-03-23T09:29:52;1.20;;;0.93;;
21886;SDS011;11108;49.988;8.182;2024-03-23T09:32:17;3.13;;;0.90;;
21886;SDS011;11108;49.988;8.182;2024-03-23T09:34:42;1.43;;;1.03;;
21886;SDS011;11108;49.988;8.182;2024-03-23T09:37:08;2.00;;;1.07;;
21886;SDS011;11108;49.988;8.182;2024-03-23T09:39:33;1.00;;;0.93;;
21886;SDS011;11108;49.988;8.182;2024-03-23T09:41:58;1.03;;;1.00;;
21886;SDS011;11108;49.988;8.182;2024-03-23T09:44:24;2.07;;;0.97;;
21886;SDS011;11108;49.988;8.182;2024-03-23T09:46:51;2.30;;;1.07;;
21886;SDS011;11108;49.988;8.182;2024-03-23T09:49:16;0.90;;;0.80;;
21886;SDS011;11108;49.988;8.182;2024-03-23T09:51:42;1.13;;;0.90;;
21886;SDS011;11108;49.988;8.182;2024-03-23T09:54:07;1.33;;;1.27;;
21886;SDS011;11108;49.988;8.182;2024-03-23T09:56:32;2.40;;;1.00;;
21886;SDS011;11108;49.988;8.182;2024-03-23T09:59:03;1.17;;;0.90;;
21886;SDS011;11108;49.988;8.182;2024-03-23T10:01:29;3.00;;;1.00;;
21886;SDS011;11108;49.988;8.182;2024-03-23T10:03:55;1.93;;;0.90;;
21886;SDS011;11108;49.988;8.182;2024-03-23T10:06:21;1.13;;;1.00;;
21886;SDS011;11108;49.988;8.182;2024-03-23T10:08:46;1.27;;;0.83;;
21886;SDS011;11108;49.988;8.182;2024-03-23T10:11:13;1.37;;;1.27;;
21886;SDS011;11108;49.988;8.182;2024-03-23T10:13:38;1.80;;;0.87;;
21886;SDS011;11108;49.988;8.182;2024-03-23T10:16:06;1.07;;;0.90;;
21886;SDS011;11108;49.988;8.182;2024-03-23T10:18:31;2.00;;;1.10;;
21886;SDS011;11108;49.988;8.182;2024-03-23T10:23:31;4.50;;;1.20;;
21886;SDS011;11108;49.988;8.182;2024-03-23T10:26:16;3.47;;;1.00;;
21886;SDS011;11108;49.988;8.182;2024-03-23T10:31:16;2.00;;;0.90;;
21886;SDS011;11108;49.988;8.182;2024-03-23T10:33:45;5.47;;;1.20;;
21886;SDS011;11108;49.988;8.182;2024-03-23T10:36:11;5.60;;;1.10;;
21886;SDS011;11108;49.988;8.182;2024-03-23T10:38:36;2.50;;;0.90;;
21886;SDS011;11108;49.988;8.182;2024-03-23T10:41:02;2.40;;;1.00;;
21886;SDS011;11108;49.988;8.182;2024-03-23T10:43:27;3.20;;;1.20;;
21886;SDS011;11108;49.988;8.182;2024-03-23T10:45:53;1.97;;;0.90;;
21886;SDS011;11108;49.988;8.182;2024-03-23T10:48:18;1.20;;;1.00;;
21886;SDS011;11108;49.988;8.182;2024-03-23T10:50:43;1.30;;;1.03;;
21886;SDS011;11108;49.988;8.182;2024-03-23T10:53:08;1.80;;;1.00;;
21886;SDS011;11108;49.988;8.182;2024-03-23T10:55:34;2.07;;;0.83;;
21886;SDS011;11108;49.988;8.182;2024-03-23T10:57:59;1.40;;;1.07;;
21886;SDS011;11108;49.988;8.182;2024-03-23T11:00:25;1.77;;;0.90;;
21886;SDS011;11108;49.988;8.182;2024-03-23T11:02:50;3.27;;;1.20;;
21886;SDS011;11108;49.988;8.182;2024-03-23T11:05:31;1.10;;;1.00;;
21886;SDS011;11108;49.988;8.182;2024-03-23T11:07:57;2.30;;;0.93;;
21886;SDS011;11108;49.988;8.182;2024-03-23T11:10:31;1.10;;;1.00;;
21886;SDS011;11108;49.988;8.182;2024-03-23T11:12:58;2.00;;;0.97;;
21886;SDS011;11108;49.988;8.182;2024-03-23T11:15:23;0.97;;;0.70;;
21886;SDS011;11108;49.988;8.182;2024-03-23T11:18:07;1.67;;;1.17;;
21886;SDS011;11108;49.988;8.182;2024-03-23T11:20:37;4.80;;;1.13;;
21886;SDS011;11108;49.988;8.182;2024-03-23T11:23:02;1.67;;;0.83;;
21886;SDS011;11108;49.988;8.182;2024-03-23T11:25:28;2.10;;;1.10;;
21886;SDS011;11108;49.988;8.182;2024-03-23T11:27:58;2.70;;;1.00;;
21886;SDS011;11108;49.988;8.182;2024-03-23T11:30:27;1.47;;;1.00;;
21886;SDS011;11108;49.988;8.182;2024-03-23T11:32:54;1.03;;;0.77;;
21886;SDS011;11108;49.988;8.182;2024-03-23T11:35:33;1.40;;;0.80;;
21886;SDS011;11108;49.988;8.182;2024-03-23T11:38:11;1.07;;;0.97;;
21886;SDS011;11108;49.988;8.182;2024-03-23T11:40:43;0.97;;;0.80;;
21886;SDS011;11108;49.988;8.182;2024-03-23T11:50:36;1.27;;;0.90;;
21886;SDS011;11108;49.988;8.182;2024-03-23T11:55:40;1.90;;;0.83;;
21886;SDS011;11108;49.988;8.182;2024-03-23T11:58:05;1.30;;;1.00;;
21886;SDS011;11108;49.988;8.182;2024-03-23T12:00:30;3.80;;;1.10;;
21886;SDS011;11108;49.988;8.182;2024-03-23T12:03:00;2.47;;;1.03;;
21886;SDS011;11108;49.988;8.182;2024-03-23T12:05:26;2.47;;;1.10;;
21886;SDS011;11108;49.988;8.182;2024-03-23T12:07:51;3.97;;;0.97;;
21886;SDS011;11108;49.988;8.182;2024-03-23T12:10:16;1.90;;;0.87;;
21886;SDS011;11108;49.988;8.182;2024-03-23T12:12:44;3.27;;;1.33;;
21886;SDS011;11108;49.988;8.182;2024-03-23T12:15:09;2.13;;;1.00;;
21886;SDS011;11108;49.988;8.182;2024-03-23T12:17:36;2.00;;;1.20;;
21886;SDS011;11108;49.988;8.182;2024-03-23T12:20:01;1.90;;;0.83;;
21886;SDS011;11108;49.988;8.182;2024-03-23T12:22:27;1.93;;;1.00;;
21886;SDS011;11108;49.988;8.182;2024-03-23T12:24:54;1.60;;;1.00;;
21886;SDS011;11108;49.988;8.182;2024-03-23T12:27:19;1.87;;;1.13;;
21886;SDS011;11108;49.988;8.182;2024-03-23T12:29:44;2.47;;;0.90;;
21886;SDS011;11108;49.988;8.182;2024-03-23T12:32:11;2.20;;;1.47;;
21886;SDS011;11108;49.988;8.182;2024-03-23T12:34:37;1.70;;;1.00;;
21886;SDS011;11108;49.988;8.182;2024-03-23T12:37:02;4.03;;;1.17;;
21886;SDS011;11108;49.988;8.182;2024-03-23T12:39:27;2.20;;;1.13;;
21886;SDS011;11108;49.988;8.182;2024-03-23T12:41:52;1.47;;;1.07;;
21886;SDS011;11108;49.988;8.182;2024-03-23T12:44:18;3.43;;;1.10;;
21886;SDS011;11108;49.988;8.182;2024-03-23T12:46:43;1.40;;;1.00;;
21886;SDS011;11108;49.988;8.182;2024-03-23T12:49:09;0.80;;;0.80;;
21886;SDS011;11108;49.988;8.182;2024-03-23T12:51:34;1.10;;;1.00;;
21886;SDS011;11108;49.988;8.182;2024-03-23T12:53:59;1.67;;;0.87;;
21886;SDS011;11108;49.988;8.182;2024-03-23T12:56:24;0.93;;;0.70;;
21886;SDS011;11108;49.988;8.182;2024-03-23T12:58:50;2.90;;;1.00;;
21886;SDS011;11108;49.988;8.182;2024-03-23T13:01:19;2.40;;;1.33;;
21886;SDS011;11108;49.988;8.182;2024-03-23T13:03:46;0.70;;;0.70;;
21886;SDS011;11108;49.988;8.182;2024-03-23T13:06:11;0.80;;;0.80;;
21886;SDS011;11108;49.988;8.182;2024-03-23T13:08:36;1.33;;;1.00;;
21886;SDS011;11108;49.988;8.182;2024-03-23T13:11:01;4.57;;;0.97;;
21886;SDS011;11108;49.988;8.182;2024-03-23T13:13:26;1.83;;;1.10;;
21886;SDS011;11108;49.988;8.182;2024-03-23T13:15:52;3.03;;;1.17;;
21886;SDS011;11108;49.988;8.182;2024-03-23T13:18:17;2.63;;;1.00;;
21886;SDS011;11108;49.988;8.182;2024-03-23T13:20:42;1.13;;;1.03;;
21886;SDS011;11108;49.988;8.182;2024-03-23T13:23:07;3.70;;;0.93;;
21886;SDS011;11108;49.988;8.182;2024-03-23T13:25:33;1.60;;;1.00;;
21886;SDS011;11108;49.988;8.182;2024-03-23T13:27:58;2.40;;;1.10;;
21886;SDS011;11108;49.988;8.182;2024-03-23T13:30:24;2.70;;;0.80;;
21886;SDS011;11108;49.988;8.182;2024-03-23T13:32:49;3.10;;;1.20;;
21886;SDS011;11108;49.988;8.182;2024-03-23T13:35:15;3.13;;;1.10;;
21886;SDS011;11108;49.988;8.182;2024-03-23T13:37:40;3.53;;;1.10;;
21886;SDS011;11108;49.988;8.182;2024-03-23T13:40:06;1.67;;;0.97;;
21886;SDS011;11108;49.988;8.182;2024-03-23T13:42:31;1.17;;;1.00;;
21886;SDS011;11108;49.988;8.182;2024-03-23T13:44:57;1.47;;;0.90;;
21886;SDS011;11108;49.988;8.182;2024-03-23T13:47:22;1.03;;;0.97;;
21886;SDS011;11108;49.988;8.182;2024-03-23T13:49:47;1.37;;;0.70;;
21886;SDS011;11108;49.988;8.182;2024-03-23T13:52:14;1.73;;;0.70;;
21886;SDS011;11108;49.988;8.182;2024-03-23T13:54:39;0.77;;;0.60;;
21886;SDS011;11108;49.988;8.182;2024-03-23T13:57:04;1.27;;;0.70;;
21886;SDS011;11108;49.988;8.182;2024-03-23T13:59:29;1.07;;;0.87;;
21886;SDS011;11108;49.988;8.182;2024-03-23T14:01:55;1.90;;;0.90;;
21886;SDS011;11108;49.988;8.182;2024-03-23T14:04:20;1.40;;;0.77;;
21886;SDS011;11108;49.988;8.182;2024-03-23T14:06:45;0.87;;;0.60;;
21886;SDS011;11108;49.988;8.182;2024-03-23T14:09:11;3.33;;;0.90;;
21886;SDS011;11108;49.988;8.182;2024-03-23T14:11:36;1.30;;;1.07;;
21886;SDS011;11108;49.988;8.182;2024-03-23T14:14:06;1.60;;;0.77;;
21886;SDS011;11108;49.988;8.182;2024-03-23T14:16:31;1.27;;;0.60;;
21886;SDS011;11108;49.988;8.182;2024-03-23T14:18:57;3.03;;;0.90;;
21886;SDS011;11108;49.988;8.182;2024-03-23T14:21:22;1.27;;;0.80;;
21886;SDS011;11108;49.988;8.182;2024-03-23T14:23:47;1.63;;;0.70;;
21886;SDS011;11108;49.988;8.182;2024-03-23T14:26:12;2.00;;;0.70;;
21886;SDS011;11108;49.988;8.182;2024-03-23T14:28:38;0.87;;;0.57;;
21886;SDS011;11108;49.988;8.182;2024-03-23T14:31:03;5.90;;;0.80;;
21886;SDS011;11108;49.988;8.182;2024-03-23T14:33:35;2.07;;;0.60;;
21886;SDS011;11108;49.988;8.182;2024-03-23T14:36:00;2.73;;;0.70;;
21886;SDS011;11108;49.988;8.182;2024-03-23T14:38:25;0.60;;;0.60;;
21886;SDS011;11108;49.988;8.182;2024-03-23T14:40:50;2.07;;;0.80;;
21886;SDS011;11108;49.988;8.182;2024-03-23T14:43:19;2.47;;;0.90;;
21886;SDS011;11108;49.988;8.182;2024-03-23T14:48:28;1.27;;;0.90;;
21886;SDS011;11108;49.988;8.182;2024-03-23T14:50:56;5.60;;;0.90;;
21886;SDS011;11108;49.988;8.182;2024-03-23T14:53:22;1.23;;;0.90;;
21886;SDS011;11108;49.988;8.182;2024-03-23T14:55:47;3.03;;;0.90;;
21886;SDS011;11108;49.988;8.182;2024-03-23T14:58:14;2.37;;;0.80;;
21886;SDS011;11108;49.988;8.182;2024-03-23T15:00:39;1.80;;;0.90;;
21886;SDS011;11108;49.988;8.182;2024-03-23T15:03:04;0.60;;;0.60;;
21886;SDS011;11108;49.988;8.182;2024-03-23T15:05:29;1.37;;;0.90;;
21886;SDS011;11108;49.988;8.182;2024-03-23T15:07:54;0.77;;;0.70;;
21886;SDS011;11108;49.988;8.182;2024-03-23T15:10:20;0.70;;;0.70;;
21886;SDS011;11108;49.988;8.182;2024-03-23T15:12:45;1.23;;;0.70;;
21886;SDS011;11108;49.988;8.182;2024-03-23T15:15:10;3.43;;;1.40;;
21886;SDS011;11108;49.988;8.182;2024-03-23T15:17:35;7.70;;;1.80;;
21886;SDS011;11108;49.988;8.182;2024-03-23T15:20:02;5.23;;;1.87;;
21886;SDS011;11108;49.988;8.182;2024-03-23T15:22:27;9.23;;;3.00;;
21886;SDS011;11108;49.988;8.182;2024-03-23T15:24:52;9.63;;;3.13;;
21886;SDS011;11108;49.988;8.182;2024-03-23T15:27:17;11.53;;;3.13;;
21886;SDS011;11108;49.988;8.182;2024-03-23T15:29:42;8.47;;;2.50;;
21886;SDS011;11108;49.988;8.182;2024-03-23T15:32:10;11.37;;;2.70;;
21886;SDS011;11108;49.988;8.182;2024-03-23T15:34:36;8.27;;;2.37;;
21886;SDS011;11108;49.988;8.182;2024-03-23T15:37:01;8.93;;;2.67;;
21886;SDS011;11108;49.988;8.182;2024-03-23T15:39:26;7.50;;;2.37;;
21886;SDS011;11108;49.988;8.182;2024-03-23T15:41:51;4.33;;;1.90;;
21886;SDS011;11108;49.988;8.182;2024-03-23T15:44:19;4.83;;;2.00;;
21886;SDS011;11108;49.988;8.182;2024-03-23T15:46:44;5.20;;;2.00;;
21886;SDS011;11108;49.988;8.182;2024-03-23T15:49:09;4.40;;;2.17;;
21886;SDS011;11108;49.988;8.182;2024-03-23T15:51:34;7.40;;;2.13;;